Terminal Aerodrome Forecast
Issued by NWS

Home | Current Version | Previous Version | Text Only | Print | Product List | Glossary On
Versions: 1 2 3 4 5 6 7 8 9 10 11 12 13 14 15
000
FTUS46 KSEW 020500
TAFBLI
TAF
KBLI 020520Z 0206/0306 17010KT P6SM -SHRA BKN020 OVC050
      TEMPO 0206/0209 BKN015
     FM021000 16008KT P6SM -SHRA OVC020
     FM022000 17010KT P6SM -SHRA OVC025=

USA.gov is the U.S. government's official web portal to all federal, state and local government web resources and services.